Le Roy, Kansas
Current Conditions -  °F | °C
As of 9:59 PM on Sunday 21 Dec 2014 (Local Time) from KCNU Reporting Station
Overcast Overcast  
Wind Chill: 37°   Ceiling: 4400
Heat Index: 44°   Visibility: 8mi
Dew Point: 41°   Wind: 14mph
Humidity: 89%   Direction: 160°SSE
Pressure: 29.76"   Gusts: NA
Location:  38.08°N, 95.63°W
Report Text: KCNU 220359Z AUTO 16012KT 8SM FEW017 SCT036 OVC044 07/05 A2976 RMK AO2 T00670050
Loading
Personal Weather Stations






























Interactive Weather Map New forecast layout! Learn more

10-Day Weather Forecast

Advertisements
Track Severe Weather on mobile